createdAt,value
2018-01-25T00:01:37.839Z,60.90
2018-01-25T00:04:05.405Z,60.40
2018-01-25T00:06:33.714Z,60.70
2018-01-25T00:09:02.034Z,60.30
2018-01-25T00:11:30.437Z,60.00
2018-01-25T00:13:58.754Z,59.70
2018-01-25T00:16:27.054Z,59.60
2018-01-25T00:18:55.375Z,60.30
2018-01-25T00:21:23.687Z,60.50
2018-01-25T00:23:52.738Z,61.00
2018-01-25T00:26:20.665Z,60.10
2018-01-25T00:28:48.609Z,60.30
2018-01-25T00:31:16.956Z,60.00
2018-01-25T00:33:45.273Z,60.10
2018-01-25T00:36:13.579Z,60.10
2018-01-25T00:38:42.014Z,60.10
2018-01-25T00:41:10.391Z,59.70
2018-01-25T00:43:38.707Z,59.30
2018-01-25T00:46:07.004Z,59.20
2018-01-25T00:48:35.325Z,59.20
2018-01-25T00:51:03.643Z,59.30
2018-01-25T00:53:32.058Z,59.10
2018-01-25T00:56:00.554Z,59.00
2018-01-25T00:58:28.484Z,59.00
2018-01-25T01:00:56.040Z,59.20
2018-01-25T01:03:23.976Z,59.30
2018-01-25T01:05:53.070Z,60.30
2018-01-25T01:08:21.005Z,59.80
2018-01-25T01:10:48.963Z,59.40
2018-01-25T01:13:17.269Z,59.20
2018-01-25T01:15:45.621Z,59.50
2018-01-25T01:18:13.917Z,59.90
2018-01-25T01:20:42.277Z,59.60
2018-01-25T01:23:10.585Z,59.70
2018-01-25T01:25:38.903Z,59.60
2018-01-25T01:28:07.206Z,59.80
2018-01-25T01:30:35.614Z,60.00
2018-01-25T01:33:03.925Z,60.20
2018-01-25T01:35:32.234Z,60.20
2018-01-25T01:38:00.547Z,60.30
2018-01-25T01:40:28.899Z,60.50
2018-01-25T01:42:57.188Z,60.40
2018-01-25T01:45:25.142Z,60.30
2018-01-25T01:47:53.070Z,60.20
2018-01-25T01:50:21.046Z,59.70
2018-01-25T01:52:49.353Z,59.70
2018-01-25T01:55:17.670Z,60.40
2018-01-25T01:57:46.705Z,60.90
2018-01-25T02:00:14.382Z,60.60
2018-01-25T02:02:43.114Z,60.50
2018-01-25T02:05:11.068Z,60.40
2018-01-25T02:07:39.385Z,60.30
2018-01-25T02:10:07.715Z,60.00
2018-01-25T02:12:36.023Z,59.90
2018-01-25T02:15:05.140Z,60.70
2018-01-25T02:17:33.461Z,60.90
2018-01-25T02:20:01.011Z,60.50
2018-01-25T02:22:29.331Z,60.60
2018-01-25T02:24:58.371Z,61.20
2018-01-25T02:27:25.934Z,60.70
2018-01-25T02:29:54.318Z,60.60
2018-01-25T02:32:22.702Z,60.80
2018-01-25T02:34:51.011Z,60.20
2018-01-25T02:37:20.062Z,61.00
2018-01-25T02:39:48.005Z,60.60
2018-01-25T02:42:16.007Z,61.00
2018-01-25T02:44:44.385Z,60.30
2018-01-25T02:47:12.700Z,60.60
2018-01-25T02:49:40.263Z,60.60
2018-01-25T02:52:08.219Z,60.70
2018-01-25T02:54:36.518Z,60.80
2018-01-25T02:57:04.872Z,61.10
2018-01-25T02:59:33.172Z,61.30
2018-01-25T03:02:01.494Z,61.40
2018-01-25T03:04:30.166Z,61.60
2018-01-25T03:06:58.486Z,61.60
2018-01-25T03:09:26.454Z,61.20
2018-01-25T03:11:54.774Z,61.10
2018-01-25T03:14:23.070Z,61.70
2018-01-25T03:16:51.382Z,62.10
2018-01-25T03:19:19.690Z,61.80
2018-01-25T03:21:48.018Z,61.40
2018-01-25T03:24:16.374Z,61.40
2018-01-25T03:26:44.695Z,61.40
2018-01-25T03:29:13.059Z,61.60
2018-01-25T03:31:41.389Z,61.50
2018-01-25T03:34:09.700Z,61.50
2018-01-25T03:36:38.015Z,61.80
2018-01-25T03:39:06.362Z,61.60
2018-01-25T03:41:34.739Z,61.80
2018-01-25T03:44:03.117Z,61.70
2018-01-25T03:46:31.441Z,61.70
2018-01-25T03:49:00.495Z,62.10
2018-01-25T03:51:28.052Z,61.50
2018-01-25T03:53:56.430Z,61.60
2018-01-25T03:56:24.738Z,61.80
2018-01-25T03:58:53.050Z,61.70
2018-01-25T04:01:21.442Z,62.30
2018-01-25T04:03:49.840Z,61.70
2018-01-25T04:06:18.144Z,61.70
2018-01-25T04:08:46.495Z,61.80
2018-01-25T04:11:14.789Z,62.20
2018-01-25T04:13:43.110Z,62.30
2018-01-25T04:16:11.406Z,62.00
2018-01-25T04:18:38.959Z,62.00
2018-01-25T04:21:06.890Z,62.00
2018-01-25T04:23:35.233Z,62.10
2018-01-25T04:26:03.571Z,61.90
2018-01-25T04:28:31.898Z,61.80
2018-01-25T04:31:00.216Z,61.90
2018-01-25T04:33:28.551Z,62.00
2018-01-25T04:35:56.855Z,62.30
2018-01-25T04:38:25.301Z,62.50
2018-01-25T04:40:53.610Z,63.10
2018-01-25T04:43:22.043Z,63.00
2018-01-25T04:45:50.338Z,62.80
2018-01-25T04:48:18.658Z,62.70
2018-01-25T04:50:46.965Z,63.20
2018-01-25T04:53:15.279Z,63.10
2018-01-25T04:55:43.592Z,62.80
2018-01-25T04:58:12.285Z,62.60
2018-01-25T05:00:40.219Z,62.20
2018-01-25T05:03:08.534Z,62.60
2018-01-25T05:05:36.848Z,62.70
2018-01-25T05:08:05.146Z,62.30
2018-01-25T05:10:32.700Z,62.30
2018-01-25T05:13:00.649Z,62.20
2018-01-25T05:15:28.963Z,62.10
2018-01-25T05:17:58.089Z,62.20
2018-01-25T05:20:26.415Z,63.00
2018-01-25T05:22:53.959Z,62.70
2018-01-25T05:25:22.646Z,62.60
2018-01-25T05:27:50.624Z,62.40
2018-01-25T05:30:18.945Z,62.50
2018-01-25T05:32:47.255Z,62.20
2018-01-25T05:35:15.671Z,62.10
2018-01-25T05:37:43.971Z,61.70
2018-01-25T05:40:12.290Z,62.30
2018-01-25T05:42:40.607Z,62.90
2018-01-25T05:45:08.980Z,63.50
2018-01-25T05:47:37.279Z,63.30
2018-01-25T05:50:05.604Z,62.80
2018-01-25T05:52:33.899Z,62.50
2018-01-25T05:55:01.445Z,62.80
2018-01-25T05:57:29.378Z,63.40
2018-01-25T05:59:57.702Z,62.90
2018-01-25T06:02:26.095Z,62.40
2018-01-25T06:04:54.428Z,62.10
2018-01-25T06:07:22.721Z,61.90
2018-01-25T06:09:51.054Z,62.00
2018-01-25T06:12:20.290Z,61.80
2018-01-25T06:14:48.975Z,62.10
2018-01-25T06:17:16.914Z,61.50
2018-01-25T06:19:44.474Z,61.40
2018-01-25T06:22:12.765Z,61.30
2018-01-25T06:24:41.087Z,61.70
2018-01-25T06:27:09.456Z,61.50
2018-01-25T06:29:37.778Z,61.10
2018-01-25T06:32:06.171Z,61.00
2018-01-25T06:34:34.490Z,60.80
2018-01-25T06:37:03.558Z,61.40
2018-01-25T06:39:32.228Z,61.90
2018-01-25T06:41:59.787Z,61.40
2018-01-25T06:44:27.768Z,61.00
2018-01-25T06:46:56.090Z,61.40
2018-01-25T06:49:25.133Z,62.10
2018-01-25T06:51:52.802Z,61.60
2018-01-25T06:54:21.099Z,61.20
2018-01-25T06:56:49.414Z,61.60
2018-01-25T06:59:17.789Z,62.90
2018-01-25T07:01:46.090Z,64.70
2018-01-25T07:04:14.389Z,66.10
2018-01-25T07:06:42.338Z,65.90
2018-01-25T07:09:09.879Z,65.40
2018-01-25T07:11:38.201Z,64.50
2018-01-25T07:14:06.502Z,63.70
2018-01-25T07:16:34.849Z,63.10
2018-01-25T07:19:03.449Z,62.90
2018-01-25T07:21:31.453Z,63.10
2018-01-25T07:23:59.762Z,62.70
2018-01-25T07:26:28.097Z,62.10
2018-01-25T07:28:56.435Z,61.60
2018-01-25T07:31:24.761Z,61.10
2018-01-25T07:33:52.295Z,60.70
2018-01-25T07:36:20.243Z,60.20
2018-01-25T07:38:48.618Z,59.80
2018-01-25T07:41:16.945Z,59.40
2018-01-25T07:43:45.247Z,59.00
2018-01-25T07:46:13.557Z,58.80
2018-01-25T07:48:41.865Z,58.70
2018-01-25T07:51:10.202Z,59.00
2018-01-25T07:53:38.505Z,59.10
2018-01-25T07:56:06.814Z,59.60
2018-01-25T07:58:35.236Z,59.30
2018-01-25T08:01:03.615Z,59.20
2018-01-25T08:03:31.949Z,59.20
2018-01-25T08:06:00.333Z,59.20
2018-01-25T08:08:29.017Z,59.50
2018-01-25T08:10:57.329Z,59.60
2018-01-25T08:13:31.070Z,59.70
2018-01-25T08:16:04.830Z,59.90
2018-01-25T08:18:33.186Z,60.20
2018-01-25T08:21:02.231Z,60.60
2018-01-25T08:23:30.543Z,60.50
2018-01-25T08:25:58.101Z,60.40
2018-01-25T08:28:26.498Z,60.30
2018-01-25T08:30:54.796Z,60.20
2018-01-25T08:33:23.187Z,60.30
2018-01-25T08:35:51.486Z,60.60
2018-01-25T08:38:19.814Z,60.60
2018-01-25T08:40:48.118Z,60.50
2018-01-25T08:43:16.433Z,60.60
2018-01-25T08:45:44.750Z,60.00
2018-01-25T08:48:13.074Z,60.00
2018-01-25T08:50:41.513Z,60.10
2018-01-25T08:53:09.841Z,60.40
2018-01-25T08:55:38.137Z,60.30
2018-01-25T08:58:06.564Z,59.70
2018-01-25T09:00:34.862Z,59.30
2018-01-25T09:03:03.237Z,59.90
2018-01-25T09:05:31.529Z,59.00
2018-01-25T09:07:59.976Z,59.00
2018-01-25T09:10:28.274Z,59.20
2018-01-25T09:12:56.671Z,59.00
2018-01-25T09:15:25.715Z,59.30
2018-01-25T09:17:53.278Z,59.00
2018-01-25T09:20:21.613Z,59.00
2018-01-25T09:22:50.073Z,58.70
2018-01-25T09:25:18.405Z,58.10
2018-01-25T09:27:46.731Z,57.60
2018-01-25T09:30:15.062Z,57.70
2018-01-25T09:32:43.397Z,57.50
2018-01-25T09:35:11.703Z,57.40
2018-01-25T09:37:40.038Z,56.70
2018-01-25T09:40:10.708Z,56.80
2018-01-25T09:42:38.267Z,56.80
2018-01-25T09:45:06.237Z,56.60
2018-01-25T09:47:34.575Z,56.40
2018-01-25T09:50:02.994Z,57.50
2018-01-25T09:52:30.543Z,57.30
2018-01-25T09:54:59.233Z,56.90
2018-01-25T09:57:31.613Z,56.40
2018-01-25T09:59:59.492Z,55.80
2018-01-25T10:02:27.712Z,55.70
2018-01-25T10:04:56.063Z,55.50
2018-01-25T10:07:24.386Z,55.50
2018-01-25T10:09:52.712Z,55.70
2018-01-25T10:12:21.038Z,55.70
2018-01-25T10:14:49.395Z,55.70
2018-01-25T10:17:17.705Z,55.60
2018-01-25T10:19:46.026Z,55.50
2018-01-25T10:22:14.348Z,54.90
2018-01-25T10:24:42.682Z,55.00
2018-01-25T10:27:11.122Z,55.00
2018-01-25T10:29:39.428Z,55.20
2018-01-25T10:32:07.765Z,55.40
2018-01-25T10:34:36.090Z,55.60
2018-01-25T10:37:04.411Z,55.00
2018-01-25T10:39:32.714Z,55.00
2018-01-25T10:42:01.052Z,54.90
2018-01-25T10:44:29.362Z,55.40
2018-01-25T10:46:57.851Z,55.40
2018-01-25T10:49:26.182Z,55.40
2018-01-25T10:51:54.230Z,54.80
2018-01-25T10:54:22.613Z,55.10
2018-01-25T10:56:51.039Z,55.20
2018-01-25T10:59:19.349Z,54.50
2018-01-25T11:01:53.495Z,54.20
2018-01-25T11:04:21.434Z,54.00
2018-01-25T11:06:48.999Z,54.20
2018-01-25T11:09:16.934Z,54.00
2018-01-25T11:11:45.278Z,54.00
2018-01-25T11:14:13.591Z,53.20
2018-01-25T11:16:41.922Z,53.00
2018-01-25T11:19:10.233Z,53.30
2018-01-25T11:21:38.561Z,52.40
2018-01-25T11:24:06.912Z,51.70
2018-01-25T11:26:35.246Z,52.00
2018-01-25T11:29:03.648Z,51.70
2018-01-25T11:31:31.984Z,51.60
2018-01-25T11:34:00.300Z,51.70
2018-01-25T11:36:28.633Z,51.60
2018-01-25T11:38:57.681Z,52.00
2018-01-25T11:41:25.242Z,51.20
2018-01-25T11:43:53.555Z,52.30
2018-01-25T11:46:22.606Z,53.10
2018-01-25T11:48:50.930Z,52.60
2018-01-25T11:51:18.465Z,51.10
2018-01-25T11:53:46.029Z,50.70
2018-01-25T11:56:13.949Z,51.50
2018-01-25T11:58:42.301Z,50.70
2018-01-25T12:01:10.605Z,51.00
2018-01-25T12:03:39.884Z,50.80
2018-01-25T12:06:08.215Z,49.80
2018-01-25T12:08:35.773Z,47.60
2018-01-25T12:11:04.077Z,47.90
2018-01-25T12:13:32.399Z,47.70
2018-01-25T12:16:00.718Z,47.80
2018-01-25T12:18:29.045Z,48.70
2018-01-25T12:20:57.361Z,48.50
2018-01-25T12:23:25.711Z,48.20
2018-01-25T12:25:54.011Z,47.70
2018-01-25T12:28:22.357Z,47.90
2018-01-25T12:30:50.773Z,48.90
2018-01-25T12:33:18.832Z,49.10
2018-01-25T12:35:47.206Z,48.50
2018-01-25T12:38:15.538Z,48.50
2018-01-25T12:40:43.964Z,47.40
2018-01-25T12:43:12.531Z,47.00
2018-01-25T12:45:40.519Z,46.80
2018-01-25T12:48:08.893Z,46.50
2018-01-25T12:50:37.198Z,47.30
2018-01-25T12:53:05.529Z,47.80
2018-01-25T12:55:33.856Z,47.30
2018-01-25T12:58:02.207Z,47.40
2018-01-25T13:00:30.600Z,47.20
2018-01-25T13:02:58.916Z,47.60
2018-01-25T13:05:27.339Z,46.90
2018-01-25T13:07:55.658Z,46.50
2018-01-25T13:10:24.785Z,47.00
2018-01-25T13:12:53.105Z,46.70
2018-01-25T13:15:21.041Z,45.30
2018-01-25T13:17:48.989Z,46.30
2018-01-25T13:20:17.295Z,46.40
2018-01-25T13:22:45.626Z,46.30
2018-01-25T13:25:13.934Z,47.00
2018-01-25T13:27:42.238Z,47.20
2018-01-25T13:30:10.757Z,47.10
2018-01-25T13:32:38.860Z,47.50
2018-01-25T13:35:07.159Z,46.70
2018-01-25T13:37:35.496Z,46.60
2018-01-25T13:40:03.928Z,46.90
2018-01-25T13:42:32.335Z,46.90
2018-01-25T13:45:00.663Z,47.20
2018-01-25T13:47:28.982Z,47.50
2018-01-25T13:49:57.313Z,47.30
2018-01-25T13:52:31.310Z,47.70
2018-01-25T13:54:59.391Z,47.50
2018-01-25T13:57:27.725Z,47.10
2018-01-25T13:59:56.094Z,47.10
2018-01-25T14:02:24.415Z,48.80
2018-01-25T14:04:52.729Z,46.80
2018-01-25T14:07:21.827Z,46.90
2018-01-25T14:09:49.391Z,46.60
2018-01-25T14:12:17.320Z,46.80
2018-01-25T14:14:44.874Z,47.10
2018-01-25T14:17:12.811Z,47.10
2018-01-25T14:19:41.132Z,47.00
2018-01-25T14:22:09.453Z,47.00
2018-01-25T14:24:37.878Z,47.00
2018-01-25T14:27:06.198Z,47.40
2018-01-25T14:29:34.521Z,47.60
2018-01-25T14:32:02.825Z,47.70
2018-01-25T14:34:31.204Z,48.20
2018-01-25T14:36:59.530Z,47.90
2018-01-25T14:39:27.840Z,47.80
2018-01-25T14:41:56.197Z,47.90
2018-01-25T14:44:24.494Z,48.20
2018-01-25T14:46:52.825Z,47.70
2018-01-25T14:49:21.875Z,47.60
2018-01-25T14:51:49.429Z,47.50
2018-01-25T14:54:17.725Z,47.40
2018-01-25T14:56:46.113Z,47.50
2018-01-25T14:59:14.468Z,46.80
2018-01-25T15:01:42.803Z,46.00
2018-01-25T15:04:11.104Z,44.90
2018-01-25T15:06:39.222Z,45.70
2018-01-25T15:09:07.531Z,45.50
2018-01-25T15:11:35.850Z,44.70
2018-01-25T15:14:04.163Z,43.40
2018-01-25T15:16:32.506Z,43.70
2018-01-25T15:19:00.817Z,44.00
2018-01-25T15:21:29.160Z,43.50
2018-01-25T15:23:57.476Z,43.80
2018-01-25T15:26:25.862Z,43.80
2018-01-25T15:28:54.949Z,44.30
2018-01-25T15:31:22.531Z,44.10
2018-01-25T15:33:50.854Z,44.60
2018-01-25T15:36:19.174Z,44.90
2018-01-25T15:38:48.226Z,45.60
2018-01-25T15:41:15.794Z,45.90
2018-01-25T15:43:44.246Z,45.70
2018-01-25T15:46:12.721Z,45.90
2018-01-25T15:48:40.707Z,46.30
2018-01-25T15:51:09.092Z,47.00
2018-01-25T15:53:37.517Z,47.30
2018-01-25T15:56:05.541Z,47.40
2018-01-25T15:58:33.912Z,47.70
2018-01-25T16:01:02.300Z,48.10
2018-01-25T16:03:30.617Z,48.50
2018-01-25T16:05:59.976Z,49.00
2018-01-25T16:08:27.654Z,49.20
2018-01-25T16:10:56.024Z,49.70
2018-01-25T16:13:24.350Z,50.00
2018-01-25T16:15:52.661Z,50.70
2018-01-25T16:18:20.977Z,50.50
2018-01-25T16:20:49.287Z,51.00
2018-01-25T16:23:18.545Z,51.60
2018-01-25T16:25:46.082Z,51.40
2018-01-25T16:28:21.881Z,51.20
2018-01-25T16:30:49.451Z,51.60
2018-01-25T16:33:18.619Z,51.60
2018-01-25T16:35:46.948Z,52.20
2018-01-25T16:38:14.522Z,52.20
2018-01-25T16:40:43.569Z,53.00
2018-01-25T16:43:11.921Z,52.60
2018-01-25T16:45:40.226Z,53.20
2018-01-25T16:48:07.789Z,53.40
2018-01-25T16:50:36.088Z,53.50
2018-01-25T16:53:04.401Z,53.00
2018-01-25T16:55:32.730Z,52.50
2018-01-25T16:58:01.081Z,52.50
2018-01-25T17:00:29.385Z,52.70
2018-01-25T17:02:57.703Z,52.60
2018-01-25T17:05:26.002Z,52.60
2018-01-25T17:07:54.344Z,52.80
2018-01-25T17:10:22.697Z,52.60
2018-01-25T17:12:51.063Z,52.50
2018-01-25T17:15:19.397Z,52.50
2018-01-25T17:17:47.702Z,53.30
2018-01-25T17:20:16.023Z,53.90
2018-01-25T17:22:44.385Z,53.50
2018-01-25T17:25:12.725Z,53.10
2018-01-25T17:27:41.038Z,52.90
2018-01-25T17:30:10.350Z,53.20
2018-01-25T17:32:38.833Z,54.40
2018-01-25T17:35:07.220Z,54.20
2018-01-25T17:37:35.526Z,54.00
2018-01-25T17:40:03.962Z,53.70
2018-01-25T17:42:32.337Z,54.30
2018-01-25T17:45:00.675Z,53.20
2018-01-25T17:47:28.689Z,53.50
2018-01-25T17:49:56.301Z,52.90
2018-01-25T17:52:24.470Z,52.60
2018-01-25T17:54:52.598Z,52.20
2018-01-25T17:57:20.952Z,51.90
2018-01-25T17:59:49.282Z,51.60
2018-01-25T18:02:17.643Z,51.90
2018-01-25T18:04:46.040Z,51.60
2018-01-25T18:07:14.093Z,51.50
2018-01-25T18:09:42.489Z,51.50
2018-01-25T18:12:10.799Z,51.70
2018-01-25T18:14:39.129Z,51.10
2018-01-25T18:17:07.506Z,50.80
2018-01-25T18:19:35.995Z,51.30
2018-01-25T18:22:04.411Z,51.20
2018-01-25T18:24:32.421Z,51.50
2018-01-25T18:27:00.721Z,51.60
2018-01-25T18:29:29.229Z,51.70
2018-01-25T18:31:57.588Z,51.90
2018-01-25T18:34:25.942Z,51.80
2018-01-25T18:36:54.261Z,51.40
2018-01-25T18:39:23.361Z,52.20
2018-01-25T18:41:50.917Z,51.50
2018-01-25T18:44:20.015Z,52.00
2018-01-25T18:46:48.019Z,51.60
2018-01-25T18:49:15.606Z,52.00
2018-01-25T18:51:43.213Z,52.40
2018-01-25T18:54:11.713Z,52.30
2018-01-25T18:56:40.099Z,52.80
2018-01-25T18:59:08.310Z,52.70
2018-01-25T19:01:36.291Z,52.40
2018-01-25T19:04:04.285Z,52.80
2018-01-25T19:06:32.683Z,53.00
2018-01-25T19:09:01.006Z,53.40
2018-01-25T19:11:29.330Z,53.40
2018-01-25T19:13:57.689Z,53.30
2018-01-25T19:16:26.062Z,53.60
2018-01-25T19:18:54.433Z,54.20
2018-01-25T19:21:22.759Z,54.20
2018-01-25T19:23:51.100Z,54.20
2018-01-25T19:26:20.772Z,55.10
2018-01-25T19:28:48.813Z,54.60
2018-01-25T19:31:17.134Z,54.40
2018-01-25T19:33:45.290Z,54.60
2018-01-25T19:36:13.622Z,54.60
2018-01-25T19:38:41.244Z,54.80
2018-01-25T19:41:09.730Z,54.80
2018-01-25T19:43:38.042Z,54.60
2018-01-25T19:46:07.122Z,55.20
2018-01-25T19:48:35.110Z,54.70
2018-01-25T19:51:05.100Z,55.20
2018-01-25T19:53:33.465Z,55.20
2018-01-25T19:56:01.123Z,55.50
2018-01-25T19:58:29.488Z,55.50
2018-01-25T20:00:57.840Z,55.60
2018-01-25T20:03:26.238Z,55.70
2018-01-25T20:05:54.233Z,55.80
2018-01-25T20:08:22.562Z,56.00
2018-01-25T20:10:50.882Z,55.80
2018-01-25T20:13:19.262Z,55.90
2018-01-25T20:15:47.577Z,55.80
2018-01-25T20:18:16.701Z,56.30
2018-01-25T20:20:45.061Z,56.80
2018-01-25T20:23:13.009Z,56.70
2018-01-25T20:25:40.943Z,56.30
2018-01-25T20:28:09.263Z,56.60
2018-01-25T20:30:37.759Z,56.70
2018-01-25T20:33:05.808Z,56.60
2018-01-25T20:35:34.180Z,56.80
2018-01-25T20:38:02.572Z,58.00
2018-01-25T20:40:30.932Z,58.40
2018-01-25T20:42:59.270Z,58.30
2018-01-25T20:45:27.578Z,58.10
2018-01-25T20:47:55.949Z,58.20
2018-01-25T20:50:24.312Z,57.80
2018-01-25T20:52:52.696Z,57.60
2018-01-25T20:55:20.654Z,57.30
2018-01-25T20:57:48.277Z,57.00
2018-01-25T21:00:16.603Z,57.20
2018-01-25T21:02:44.571Z,57.40
2018-01-25T21:05:12.570Z,57.30
2018-01-25T21:07:40.971Z,57.10
2018-01-25T21:10:09.351Z,56.90
2018-01-25T21:12:37.657Z,56.70
2018-01-25T21:15:06.750Z,57.00
2018-01-25T21:17:34.576Z,57.00
2018-01-25T21:20:02.668Z,56.80
2018-01-25T21:22:30.989Z,56.40
2018-01-25T21:24:59.644Z,56.60
2018-01-25T21:27:28.327Z,57.00
2018-01-25T21:29:55.936Z,56.30
2018-01-25T21:32:24.355Z,56.10
2018-01-25T21:34:52.740Z,56.20
2018-01-25T21:37:21.101Z,56.40
2018-01-25T21:39:49.553Z,56.30
2018-01-25T21:42:17.558Z,56.20
2018-01-25T21:44:45.924Z,56.60
2018-01-25T21:47:14.248Z,57.00
2018-01-25T21:49:42.706Z,57.10
2018-01-25T21:52:13.657Z,57.20
2018-01-25T21:54:41.982Z,57.30
2018-01-25T21:57:10.353Z,57.40
2018-01-25T21:59:38.671Z,57.40
2018-01-25T22:02:06.970Z,57.60
2018-01-25T22:04:34.577Z,57.80
2018-01-25T22:07:02.165Z,57.60
2018-01-25T22:09:30.568Z,58.00
2018-01-25T22:11:58.883Z,58.10
2018-01-25T22:14:27.204Z,58.10
2018-01-25T22:16:55.502Z,58.10
2018-01-25T22:19:23.881Z,58.20
2018-01-25T22:21:52.549Z,58.50
2018-01-25T22:24:20.486Z,58.40
2018-01-25T22:26:48.887Z,58.00
2018-01-25T22:29:17.499Z,58.30
2018-01-25T22:31:45.865Z,58.50
2018-01-25T22:34:13.853Z,58.30
2018-01-25T22:36:42.231Z,58.40
2018-01-25T22:39:10.629Z,58.40
2018-01-25T22:41:38.674Z,58.60
2018-01-25T22:44:07.066Z,58.80
2018-01-25T22:46:35.398Z,58.90
2018-01-25T22:49:03.709Z,58.80
2018-01-25T22:51:32.051Z,58.50
2018-01-25T22:54:00.409Z,58.50
2018-01-25T22:56:28.784Z,58.50
2018-01-25T22:58:57.136Z,58.70
2018-01-25T23:01:25.508Z,59.00
2018-01-25T23:03:53.823Z,59.10
2018-01-25T23:06:22.211Z,59.40
2018-01-25T23:08:50.232Z,59.30
2018-01-25T23:11:18.564Z,59.40
2018-01-25T23:13:46.984Z,59.00
2018-01-25T23:16:15.310Z,59.30
2018-01-25T23:18:44.543Z,59.70
2018-01-25T23:21:12.157Z,59.00
2018-01-25T23:23:40.103Z,58.90
2018-01-25T23:26:08.465Z,58.60
2018-01-25T23:28:36.763Z,58.80
2018-01-25T23:31:04.322Z,58.80
2018-01-25T23:33:32.309Z,59.10
2018-01-25T23:36:01.376Z,59.70
2018-01-25T23:38:35.867Z,59.50
2018-01-25T23:41:04.186Z,59.30
2018-01-25T23:43:32.506Z,59.50
2018-01-25T23:46:00.953Z,59.50
2018-01-25T23:48:29.271Z,59.40
2018-01-25T23:50:57.656Z,60.00
2018-01-25T23:53:25.649Z,61.80
2018-01-25T23:55:54.028Z,60.60
2018-01-25T23:58:22.406Z,60.10
